sensor_id;sensor_type;location;lat;lon;timestamp;P1;durP1;ratioP1;P2;durP2;ratioP2
54831;SDS011;40730;53.068;6.572;2022-09-09T00:04:37;32.22;;;16.92;;
54831;SDS011;40730;53.068;6.572;2022-09-09T00:07:15;32.42;;;17.58;;
54831;SDS011;40730;53.068;6.572;2022-09-09T00:10:07;32.03;;;18.27;;
54831;SDS011;40730;53.068;6.572;2022-09-09T00:15:20;35.85;;;18.42;;
54831;SDS011;40730;53.068;6.572;2022-09-09T00:17:57;24.00;;;16.23;;
54831;SDS011;40730;53.068;6.572;2022-09-09T00:29:09;28.30;;;17.25;;
54831;SDS011;40730;53.068;6.572;2022-09-09T00:31:41;24.67;;;15.70;;
54831;SDS011;40730;53.068;6.572;2022-09-09T00:34:14;26.10;;;15.85;;
54831;SDS011;40730;53.068;6.572;2022-09-09T00:36:43;23.90;;;14.93;;
54831;SDS011;40730;53.068;6.572;2022-09-09T00:39:13;26.08;;;15.32;;
54831;SDS011;40730;53.068;6.572;2022-09-09T00:41:57;26.10;;;16.15;;
54831;SDS011;40730;53.068;6.572;2022-09-09T00:44:35;23.40;;;14.82;;
54831;SDS011;40730;53.068;6.572;2022-09-09T00:47:12;26.17;;;16.13;;
54831;SDS011;40730;53.068;6.572;2022-09-09T00:49:59;25.48;;;15.48;;
54831;SDS011;40730;53.068;6.572;2022-09-09T00:52:40;26.40;;;16.35;;
54831;SDS011;40730;53.068;6.572;2022-09-09T00:58:14;24.55;;;16.00;;
54831;SDS011;40730;53.068;6.572;2022-09-09T01:11:23;27.05;;;15.02;;
54831;SDS011;40730;53.068;6.572;2022-09-09T01:14:01;24.10;;;14.40;;
54831;SDS011;40730;53.068;6.572;2022-09-09T01:16:43;22.75;;;13.85;;
54831;SDS011;40730;53.068;6.572;2022-09-09T01:19:10;23.48;;;14.23;;
54831;SDS011;40730;53.068;6.572;2022-09-09T01:22:01;21.80;;;15.07;;
54831;SDS011;40730;53.068;6.572;2022-09-09T01:27:04;20.95;;;14.15;;
54831;SDS011;40730;53.068;6.572;2022-09-09T01:29:32;28.13;;;14.43;;
54831;SDS011;40730;53.068;6.572;2022-09-09T01:31:59;22.83;;;14.88;;
54831;SDS011;40730;53.068;6.572;2022-09-09T01:34:28;25.42;;;15.02;;
54831;SDS011;40730;53.068;6.572;2022-09-09T01:37:08;23.23;;;13.95;;
54831;SDS011;40730;53.068;6.572;2022-09-09T01:39:35;24.88;;;14.85;;
54831;SDS011;40730;53.068;6.572;2022-09-09T01:42:03;24.80;;;16.13;;
54831;SDS011;40730;53.068;6.572;2022-09-09T01:44:32;34.70;;;17.08;;
54831;SDS011;40730;53.068;6.572;2022-09-09T01:47:00;25.08;;;15.43;;
54831;SDS011;40730;53.068;6.572;2022-09-09T01:49:26;26.75;;;16.00;;
54831;SDS011;40730;53.068;6.572;2022-09-09T01:51:53;25.42;;;16.40;;
54831;SDS011;40730;53.068;6.572;2022-09-09T01:54:20;25.48;;;15.18;;
54831;SDS011;40730;53.068;6.572;2022-09-09T02:02:23;25.13;;;14.63;;
54831;SDS011;40730;53.068;6.572;2022-09-09T02:05:38;26.65;;;14.32;;
54831;SDS011;40730;53.068;6.572;2022-09-09T02:07:59;25.00;;;15.15;;
54831;SDS011;40730;53.068;6.572;2022-09-09T02:13:13;32.58;;;14.60;;
54831;SDS011;40730;53.068;6.572;2022-09-09T02:15:49;20.45;;;13.45;;
54831;SDS011;40730;53.068;6.572;2022-09-09T02:18:27;27.02;;;15.00;;
54831;SDS011;40730;53.068;6.572;2022-09-09T02:20:58;20.08;;;13.13;;
54831;SDS011;40730;53.068;6.572;2022-09-09T02:23:24;17.60;;;12.23;;
54831;SDS011;40730;53.068;6.572;2022-09-09T02:25:50;18.40;;;13.20;;
54831;SDS011;40730;53.068;6.572;2022-09-09T02:28:17;20.50;;;12.45;;
54831;SDS011;40730;53.068;6.572;2022-09-09T02:30:46;20.02;;;12.05;;
54831;SDS011;40730;53.068;6.572;2022-09-09T02:33:18;19.75;;;11.88;;
54831;SDS011;40730;53.068;6.572;2022-09-09T02:35:44;19.25;;;11.15;;
54831;SDS011;40730;53.068;6.572;2022-09-09T02:38:12;22.15;;;12.32;;
54831;SDS011;40730;53.068;6.572;2022-09-09T02:40:40;15.57;;;11.77;;
54831;SDS011;40730;53.068;6.572;2022-09-09T02:43:05;17.23;;;12.32;;
54831;SDS011;40730;53.068;6.572;2022-09-09T02:45:33;19.52;;;11.00;;
54831;SDS011;40730;53.068;6.572;2022-09-09T02:48:09;16.80;;;10.25;;
54831;SDS011;40730;53.068;6.572;2022-09-09T02:50:46;13.85;;;9.82;;
54831;SDS011;40730;53.068;6.572;2022-09-09T02:53:22;11.80;;;8.80;;
54831;SDS011;40730;53.068;6.572;2022-09-09T02:58:27;15.57;;;9.95;;
54831;SDS011;40730;53.068;6.572;2022-09-09T03:00:53;14.05;;;8.70;;
54831;SDS011;40730;53.068;6.572;2022-09-09T03:03:19;10.95;;;8.88;;
54831;SDS011;40730;53.068;6.572;2022-09-09T03:05:46;15.98;;;8.95;;
54831;SDS011;40730;53.068;6.572;2022-09-09T03:08:12;13.10;;;8.93;;
54831;SDS011;40730;53.068;6.572;2022-09-09T03:10:38;17.83;;;9.02;;
54831;SDS011;40730;53.068;6.572;2022-09-09T03:13:04;15.57;;;8.40;;
54831;SDS011;40730;53.068;6.572;2022-09-09T03:15:30;11.52;;;8.02;;
54831;SDS011;40730;53.068;6.572;2022-09-09T03:17:57;16.02;;;8.20;;
54831;SDS011;40730;53.068;6.572;2022-09-09T03:20:27;20.60;;;9.40;;
54831;SDS011;40730;53.068;6.572;2022-09-09T03:22:55;64.53;;;12.50;;
54831;SDS011;40730;53.068;6.572;2022-09-09T03:25:21;59.60;;;11.25;;
54831;SDS011;40730;53.068;6.572;2022-09-09T03:27:51;72.95;;;14.27;;
54831;SDS011;40730;53.068;6.572;2022-09-09T03:30:19;22.38;;;9.63;;
54831;SDS011;40730;53.068;6.572;2022-09-09T03:32:49;24.10;;;11.20;;
54831;SDS011;40730;53.068;6.572;2022-09-09T03:35:15;20.33;;;10.82;;
54831;SDS011;40730;53.068;6.572;2022-09-09T03:37:40;21.48;;;10.18;;
54831;SDS011;40730;53.068;6.572;2022-09-09T03:40:06;22.48;;;11.05;;
54831;SDS011;40730;53.068;6.572;2022-09-09T03:42:34;17.08;;;9.75;;
54831;SDS011;40730;53.068;6.572;2022-09-09T03:45:02;19.90;;;9.57;;
54831;SDS011;40730;53.068;6.572;2022-09-09T03:47:28;18.60;;;9.73;;
54831;SDS011;40730;53.068;6.572;2022-09-09T03:49:54;19.77;;;10.02;;
54831;SDS011;40730;53.068;6.572;2022-09-09T03:52:20;21.55;;;9.88;;
54831;SDS011;40730;53.068;6.572;2022-09-09T03:54:50;19.90;;;9.27;;
54831;SDS011;40730;53.068;6.572;2022-09-09T03:57:16;16.15;;;9.05;;
54831;SDS011;40730;53.068;6.572;2022-09-09T03:59:42;17.75;;;8.32;;
54831;SDS011;40730;53.068;6.572;2022-09-09T04:02:08;17.02;;;8.02;;
54831;SDS011;40730;53.068;6.572;2022-09-09T04:04:34;18.52;;;7.80;;
54831;SDS011;40730;53.068;6.572;2022-09-09T04:07:00;11.77;;;6.75;;
54831;SDS011;40730;53.068;6.572;2022-09-09T04:09:26;14.32;;;7.45;;
54831;SDS011;40730;53.068;6.572;2022-09-09T04:11:52;11.43;;;7.00;;
54831;SDS011;40730;53.068;6.572;2022-09-09T04:14:18;16.02;;;8.55;;
54831;SDS011;40730;53.068;6.572;2022-09-09T04:16:44;14.80;;;8.60;;
54831;SDS011;40730;53.068;6.572;2022-09-09T04:19:10;13.88;;;8.20;;
54831;SDS011;40730;53.068;6.572;2022-09-09T04:21:39;17.63;;;9.38;;
54831;SDS011;40730;53.068;6.572;2022-09-09T04:24:06;13.77;;;8.70;;
54831;SDS011;40730;53.068;6.572;2022-09-09T04:26:33;17.65;;;10.38;;
54831;SDS011;40730;53.068;6.572;2022-09-09T04:28:59;19.52;;;11.30;;
54831;SDS011;40730;53.068;6.572;2022-09-09T04:31:25;18.02;;;10.60;;
54831;SDS011;40730;53.068;6.572;2022-09-09T04:33:51;23.75;;;12.90;;
54831;SDS011;40730;53.068;6.572;2022-09-09T04:36:17;26.50;;;13.88;;
54831;SDS011;40730;53.068;6.572;2022-09-09T04:38:44;26.73;;;15.50;;
54831;SDS011;40730;53.068;6.572;2022-09-09T04:41:10;27.85;;;15.48;;
54831;SDS011;40730;53.068;6.572;2022-09-09T04:43:37;27.38;;;14.02;;
54831;SDS011;40730;53.068;6.572;2022-09-09T04:46:03;26.80;;;14.68;;
54831;SDS011;40730;53.068;6.572;2022-09-09T04:48:29;30.13;;;15.80;;
54831;SDS011;40730;53.068;6.572;2022-09-09T04:50:59;25.42;;;14.32;;
54831;SDS011;40730;53.068;6.572;2022-09-09T04:53:27;29.20;;;14.77;;
54831;SDS011;40730;53.068;6.572;2022-09-09T04:56:00;26.67;;;14.93;;
54831;SDS011;40730;53.068;6.572;2022-09-09T04:58:31;28.15;;;15.05;;
54831;SDS011;40730;53.068;6.572;2022-09-09T05:01:03;33.00;;;16.77;;
54831;SDS011;40730;53.068;6.572;2022-09-09T05:03:33;31.30;;;16.17;;
54831;SDS011;40730;53.068;6.572;2022-09-09T05:06:09;31.67;;;16.27;;
54831;SDS011;40730;53.068;6.572;2022-09-09T05:08:36;32.78;;;17.33;;
54831;SDS011;40730;53.068;6.572;2022-09-09T05:11:04;35.15;;;17.83;;
54831;SDS011;40730;53.068;6.572;2022-09-09T05:13:38;37.42;;;18.52;;
54831;SDS011;40730;53.068;6.572;2022-09-09T05:16:03;40.72;;;19.58;;
54831;SDS011;40730;53.068;6.572;2022-09-09T05:18:29;39.88;;;18.90;;
54831;SDS011;40730;53.068;6.572;2022-09-09T05:20:58;38.10;;;19.13;;
54831;SDS011;40730;53.068;6.572;2022-09-09T05:23:25;41.40;;;18.17;;
54831;SDS011;40730;53.068;6.572;2022-09-09T05:25:57;40.25;;;19.20;;
54831;SDS011;40730;53.068;6.572;2022-09-09T05:28:24;37.50;;;18.92;;
54831;SDS011;40730;53.068;6.572;2022-09-09T05:30:57;38.22;;;19.77;;
54831;SDS011;40730;53.068;6.572;2022-09-09T05:33:25;39.03;;;19.05;;
54831;SDS011;40730;53.068;6.572;2022-09-09T05:38:28;38.83;;;18.70;;
54831;SDS011;40730;53.068;6.572;2022-09-09T05:40:54;34.58;;;18.40;;
54831;SDS011;40730;53.068;6.572;2022-09-09T05:43:21;36.83;;;18.73;;
54831;SDS011;40730;53.068;6.572;2022-09-09T05:45:48;40.20;;;20.38;;
54831;SDS011;40730;53.068;6.572;2022-09-09T05:48:30;34.05;;;17.70;;
54831;SDS011;40730;53.068;6.572;2022-09-09T05:50:57;37.15;;;19.70;;
54831;SDS011;40730;53.068;6.572;2022-09-09T05:53:26;38.38;;;18.83;;
54831;SDS011;40730;53.068;6.572;2022-09-09T05:56:03;29.50;;;16.48;;
54831;SDS011;40730;53.068;6.572;2022-09-09T05:58:36;31.42;;;16.13;;
54831;SDS011;40730;53.068;6.572;2022-09-09T06:01:13;31.05;;;16.55;;
54831;SDS011;40730;53.068;6.572;2022-09-09T06:03:47;33.00;;;17.52;;
54831;SDS011;40730;53.068;6.572;2022-09-09T06:06:14;30.77;;;16.17;;
54831;SDS011;40730;53.068;6.572;2022-09-09T06:08:43;29.25;;;16.35;;
54831;SDS011;40730;53.068;6.572;2022-09-09T06:11:20;27.13;;;15.82;;
54831;SDS011;40730;53.068;6.572;2022-09-09T06:13:48;29.52;;;16.95;;
54831;SDS011;40730;53.068;6.572;2022-09-09T06:16:18;32.38;;;16.30;;
54831;SDS011;40730;53.068;6.572;2022-09-09T06:18:45;25.88;;;15.00;;
54831;SDS011;40730;53.068;6.572;2022-09-09T06:21:15;25.48;;;15.65;;
54831;SDS011;40730;53.068;6.572;2022-09-09T06:23:41;25.27;;;15.63;;
54831;SDS011;40730;53.068;6.572;2022-09-09T06:28:45;23.92;;;14.05;;
54831;SDS011;40730;53.068;6.572;2022-09-09T06:31:12;25.70;;;15.32;;
54831;SDS011;40730;53.068;6.572;2022-09-09T06:33:42;25.33;;;14.77;;
54831;SDS011;40730;53.068;6.572;2022-09-09T06:36:12;28.08;;;15.52;;
54831;SDS011;40730;53.068;6.572;2022-09-09T06:38:40;26.95;;;15.70;;
54831;SDS011;40730;53.068;6.572;2022-09-09T06:41:07;27.92;;;14.35;;
54831;SDS011;40730;53.068;6.572;2022-09-09T06:43:34;21.08;;;13.77;;
54831;SDS011;40730;53.068;6.572;2022-09-09T06:46:08;22.77;;;14.75;;
54831;SDS011;40730;53.068;6.572;2022-09-09T06:48:36;22.77;;;14.93;;
54831;SDS011;40730;53.068;6.572;2022-09-09T06:51:02;24.27;;;14.75;;
54831;SDS011;40730;53.068;6.572;2022-09-09T06:53:34;24.92;;;14.65;;
54831;SDS011;40730;53.068;6.572;2022-09-09T06:56:22;27.48;;;14.05;;
54831;SDS011;40730;53.068;6.572;2022-09-09T06:58:48;19.90;;;12.75;;
54831;SDS011;40730;53.068;6.572;2022-09-09T07:01:15;20.95;;;13.00;;
54831;SDS011;40730;53.068;6.572;2022-09-09T07:03:44;22.08;;;13.30;;
54831;SDS011;40730;53.068;6.572;2022-09-09T07:06:16;22.50;;;12.73;;
54831;SDS011;40730;53.068;6.572;2022-09-09T07:08:47;19.85;;;12.15;;
54831;SDS011;40730;53.068;6.572;2022-09-09T07:11:15;19.20;;;12.70;;
54831;SDS011;40730;53.068;6.572;2022-09-09T07:13:41;18.77;;;12.48;;
54831;SDS011;40730;53.068;6.572;2022-09-09T07:16:08;20.45;;;12.38;;
54831;SDS011;40730;53.068;6.572;2022-09-09T07:18:39;16.77;;;12.05;;
54831;SDS011;40730;53.068;6.572;2022-09-09T07:21:05;20.38;;;12.43;;
54831;SDS011;40730;53.068;6.572;2022-09-09T07:23:31;18.83;;;12.15;;
54831;SDS011;40730;53.068;6.572;2022-09-09T07:25:57;17.80;;;11.55;;
54831;SDS011;40730;53.068;6.572;2022-09-09T07:28:24;17.10;;;12.10;;
54831;SDS011;40730;53.068;6.572;2022-09-09T07:30:55;17.88;;;11.27;;
54831;SDS011;40730;53.068;6.572;2022-09-09T07:33:22;14.65;;;10.43;;
54831;SDS011;40730;53.068;6.572;2022-09-09T07:35:48;15.38;;;10.73;;
54831;SDS011;40730;53.068;6.572;2022-09-09T07:38:15;16.15;;;9.18;;
54831;SDS011;40730;53.068;6.572;2022-09-09T07:40:41;13.10;;;9.10;;
54831;SDS011;40730;53.068;6.572;2022-09-09T07:43:07;11.93;;;9.60;;
54831;SDS011;40730;53.068;6.572;2022-09-09T07:45:34;12.93;;;8.93;;
54831;SDS011;40730;53.068;6.572;2022-09-09T07:48:00;10.80;;;8.05;;
54831;SDS011;40730;53.068;6.572;2022-09-09T07:50:26;11.75;;;7.57;;
54831;SDS011;40730;53.068;6.572;2022-09-09T07:52:52;10.48;;;6.90;;
54831;SDS011;40730;53.068;6.572;2022-09-09T07:55:18;12.70;;;7.22;;
54831;SDS011;40730;53.068;6.572;2022-09-09T07:57:45;7.85;;;5.40;;
54831;SDS011;40730;53.068;6.572;2022-09-09T08:00:11;8.20;;;5.15;;
54831;SDS011;40730;53.068;6.572;2022-09-09T08:02:37;9.75;;;5.25;;
54831;SDS011;40730;53.068;6.572;2022-09-09T08:05:02;5.68;;;4.75;;
54831;SDS011;40730;53.068;6.572;2022-09-09T08:07:29;7.35;;;4.32;;
54831;SDS011;40730;53.068;6.572;2022-09-09T08:09:55;7.10;;;4.80;;
54831;SDS011;40730;53.068;6.572;2022-09-09T08:12:20;5.85;;;4.45;;
54831;SDS011;40730;53.068;6.572;2022-09-09T08:14:46;5.72;;;4.20;;
54831;SDS011;40730;53.068;6.572;2022-09-09T08:17:13;7.75;;;4.53;;
54831;SDS011;40730;53.068;6.572;2022-09-09T08:19:39;6.03;;;3.80;;
54831;SDS011;40730;53.068;6.572;2022-09-09T08:22:05;7.53;;;3.78;;
54831;SDS011;40730;53.068;6.572;2022-09-09T08:24:32;5.15;;;2.95;;
54831;SDS011;40730;53.068;6.572;2022-09-09T08:26:58;10.38;;;3.47;;
54831;SDS011;40730;53.068;6.572;2022-09-09T08:29:24;9.60;;;3.42;;
54831;SDS011;40730;53.068;6.572;2022-09-09T08:31:51;4.60;;;2.75;;
54831;SDS011;40730;53.068;6.572;2022-09-09T08:34:19;5.68;;;3.30;;
54831;SDS011;40730;53.068;6.572;2022-09-09T08:36:46;8.00;;;3.28;;
54831;SDS011;40730;53.068;6.572;2022-09-09T08:39:14;5.30;;;2.50;;
54831;SDS011;40730;53.068;6.572;2022-09-09T08:44:22;5.60;;;2.35;;
54831;SDS011;40730;53.068;6.572;2022-09-09T08:52:15;3.70;;;2.30;;
54831;SDS011;40730;53.068;6.572;2022-09-09T08:54:44;6.28;;;2.80;;
54831;SDS011;40730;53.068;6.572;2022-09-09T08:57:12;5.90;;;2.33;;
54831;SDS011;40730;53.068;6.572;2022-09-09T08:59:43;5.50;;;2.50;;
54831;SDS011;40730;53.068;6.572;2022-09-09T09:02:14;8.15;;;2.33;;
54831;SDS011;40730;53.068;6.572;2022-09-09T09:07:33;7.10;;;2.63;;
54831;SDS011;40730;53.068;6.572;2022-09-09T09:12:41;7.93;;;3.00;;
54831;SDS011;40730;53.068;6.572;2022-09-09T09:15:19;6.00;;;2.10;;
54831;SDS011;40730;53.068;6.572;2022-09-09T09:17:48;8.90;;;1.95;;
54831;SDS011;40730;53.068;6.572;2022-09-09T09:20:15;7.22;;;2.67;;
54831;SDS011;40730;53.068;6.572;2022-09-09T09:28:02;4.85;;;1.80;;
54831;SDS011;40730;53.068;6.572;2022-09-09T09:30:44;4.25;;;1.75;;
54831;SDS011;40730;53.068;6.572;2022-09-09T09:33:29;6.68;;;2.03;;
54831;SDS011;40730;53.068;6.572;2022-09-09T09:36:18;8.43;;;1.38;;
54831;SDS011;40730;53.068;6.572;2022-09-09T09:38:51;7.10;;;1.85;;
54831;SDS011;40730;53.068;6.572;2022-09-09T09:41:34;6.25;;;1.02;;
54831;SDS011;40730;53.068;6.572;2022-09-09T09:44:02;5.75;;;1.17;;
54831;SDS011;40730;53.068;6.572;2022-09-09T09:46:29;6.25;;;1.48;;
54831;SDS011;40730;53.068;6.572;2022-09-09T09:49:02;5.55;;;1.20;;
54831;SDS011;40730;53.068;6.572;2022-09-09T09:51:30;5.47;;;1.02;;
54831;SDS011;40730;53.068;6.572;2022-09-09T09:56:41;8.63;;;2.00;;
54831;SDS011;40730;53.068;6.572;2022-09-09T09:59:21;7.43;;;1.52;;
54831;SDS011;40730;53.068;6.572;2022-09-09T10:01:53;7.37;;;1.03;;
54831;SDS011;40730;53.068;6.572;2022-09-09T10:06:48;5.25;;;0.88;;
54831;SDS011;40730;53.068;6.572;2022-09-09T10:20:10;10.85;;;1.25;;
54831;SDS011;40730;53.068;6.572;2022-09-09T10:22:44;7.38;;;0.82;;
54831;SDS011;40730;53.068;6.572;2022-09-09T10:31:12;6.55;;;1.23;;
54831;SDS011;40730;53.068;6.572;2022-09-09T10:36:39;6.13;;;0.98;;
54831;SDS011;40730;53.068;6.572;2022-09-09T10:42:12;4.85;;;0.50;;
54831;SDS011;40730;53.068;6.572;2022-09-09T10:44:55;6.75;;;0.77;;
54831;SDS011;40730;53.068;6.572;2022-09-09T10:53:08;5.65;;;0.45;;
54831;SDS011;40730;53.068;6.572;2022-09-09T10:55:48;9.07;;;1.52;;
54831;SDS011;40730;53.068;6.572;2022-09-09T10:58:35;4.80;;;0.40;;
54831;SDS011;40730;53.068;6.572;2022-09-09T11:01:48;3.50;;;0.38;;
54831;SDS011;40730;53.068;6.572;2022-09-09T11:06:50;5.05;;;0.45;;
54831;SDS011;40730;53.068;6.572;2022-09-09T11:09:21;6.65;;;0.50;;
54831;SDS011;40730;53.068;6.572;2022-09-09T11:11:55;5.22;;;0.77;;
54831;SDS011;40730;53.068;6.572;2022-09-09T11:14:29;2.97;;;0.57;;
54831;SDS011;40730;53.068;6.572;2022-09-09T11:17:03;6.00;;;0.85;;
54831;SDS011;40730;53.068;6.572;2022-09-09T11:24:59;6.25;;;0.55;;
54831;SDS011;40730;53.068;6.572;2022-09-09T11:42:22;5.78;;;0.50;;
54831;SDS011;40730;53.068;6.572;2022-09-09T11:44:49;7.20;;;0.73;;
54831;SDS011;40730;53.068;6.572;2022-09-09T11:47:22;4.40;;;0.60;;
54831;SDS011;40730;53.068;6.572;2022-09-09T11:55:25;4.25;;;0.50;;
54831;SDS011;40730;53.068;6.572;2022-09-09T12:03:08;6.38;;;0.63;;
54831;SDS011;40730;53.068;6.572;2022-09-09T12:06:00;4.47;;;0.65;;
54831;SDS011;40730;53.068;6.572;2022-09-09T12:09:06;2.75;;;0.30;;
54831;SDS011;40730;53.068;6.572;2022-09-09T12:11:37;5.07;;;0.30;;
54831;SDS011;40730;53.068;6.572;2022-09-09T12:14:03;4.93;;;0.70;;
54831;SDS011;40730;53.068;6.572;2022-09-09T12:16:31;4.13;;;0.38;;
54831;SDS011;40730;53.068;6.572;2022-09-09T12:19:05;9.63;;;1.05;;
54831;SDS011;40730;53.068;6.572;2022-09-09T12:21:58;6.05;;;0.80;;
54831;SDS011;40730;53.068;6.572;2022-09-09T12:24:36;1.80;;;0.40;;
54831;SDS011;40730;53.068;6.572;2022-09-09T12:27:33;3.70;;;0.60;;
54831;SDS011;40730;53.068;6.572;2022-09-09T12:30:09;8.50;;;0.88;;
54831;SDS011;40730;53.068;6.572;2022-09-09T12:32:37;6.95;;;0.50;;
54831;SDS011;40730;53.068;6.572;2022-09-09T12:35:03;7.40;;;0.65;;
54831;SDS011;40730;53.068;6.572;2022-09-09T12:37:40;5.95;;;0.70;;
54831;SDS011;40730;53.068;6.572;2022-09-09T12:40:31;4.95;;;0.57;;
54831;SDS011;40730;53.068;6.572;2022-09-09T12:43:19;4.40;;;0.50;;
54831;SDS011;40730;53.068;6.572;2022-09-09T12:45:47;3.40;;;0.38;;
54831;SDS011;40730;53.068;6.572;2022-09-09T12:48:15;4.35;;;0.40;;
54831;SDS011;40730;53.068;6.572;2022-09-09T12:50:52;4.18;;;0.50;;
54831;SDS011;40730;53.068;6.572;2022-09-09T12:53:23;4.32;;;0.60;;
54831;SDS011;40730;53.068;6.572;2022-09-09T12:56:09;4.43;;;0.40;;
54831;SDS011;40730;53.068;6.572;2022-09-09T12:58:45;5.15;;;0.50;;
54831;SDS011;40730;53.068;6.572;2022-09-09T13:01:23;4.70;;;0.80;;
54831;SDS011;40730;53.068;6.572;2022-09-09T13:03:51;7.22;;;0.40;;
54831;SDS011;40730;53.068;6.572;2022-09-09T13:06:22;6.15;;;0.38;;
54831;SDS011;40730;53.068;6.572;2022-09-09T13:08:50;4.57;;;0.50;;
54831;SDS011;40730;53.068;6.572;2022-09-09T13:11:17;5.25;;;0.38;;
54831;SDS011;40730;53.068;6.572;2022-09-09T13:13:50;2.08;;;0.38;;
54831;SDS011;40730;53.068;6.572;2022-09-09T13:16:28;2.75;;;0.50;;
54831;SDS011;40730;53.068;6.572;2022-09-09T13:18:56;5.05;;;1.10;;
54831;SDS011;40730;53.068;6.572;2022-09-09T13:21:36;2.95;;;0.40;;
54831;SDS011;40730;53.068;6.572;2022-09-09T13:24:07;3.58;;;0.20;;
54831;SDS011;40730;53.068;6.572;2022-09-09T13:26:58;5.50;;;0.20;;
54831;SDS011;40730;53.068;6.572;2022-09-09T13:29:27;4.18;;;0.20;;
54831;SDS011;40730;53.068;6.572;2022-09-09T13:31:53;4.00;;;0.30;;
54831;SDS011;40730;53.068;6.572;2022-09-09T13:34:32;3.70;;;0.20;;
54831;SDS011;40730;53.068;6.572;2022-09-09T13:37:17;2.50;;;0.20;;
54831;SDS011;40730;53.068;6.572;2022-09-09T13:39:58;2.10;;;0.40;;
54831;SDS011;40730;53.068;6.572;2022-09-09T13:42:28;2.95;;;0.40;;
54831;SDS011;40730;53.068;6.572;2022-09-09T13:44:56;1.60;;;0.20;;
54831;SDS011;40730;53.068;6.572;2022-09-09T13:47:28;2.85;;;0.28;;
54831;SDS011;40730;53.068;6.572;2022-09-09T13:49:57;2.53;;;0.35;;
54831;SDS011;40730;53.068;6.572;2022-09-09T13:52:22;5.10;;;0.32;;
54831;SDS011;40730;53.068;6.572;2022-09-09T13:54:49;4.15;;;0.30;;
54831;SDS011;40730;53.068;6.572;2022-09-09T13:57:17;5.75;;;0.45;;
54831;SDS011;40730;53.068;6.572;2022-09-09T13:59:47;3.92;;;0.20;;
54831;SDS011;40730;53.068;6.572;2022-09-09T14:02:14;3.60;;;0.28;;
54831;SDS011;40730;53.068;6.572;2022-09-09T14:04:41;2.85;;;0.15;;
54831;SDS011;40730;53.068;6.572;2022-09-09T14:07:14;3.53;;;0.30;;
54831;SDS011;40730;53.068;6.572;2022-09-09T14:09:41;2.90;;;0.20;;
54831;SDS011;40730;53.068;6.572;2022-09-09T14:12:13;4.43;;;0.50;;
54831;SDS011;40730;53.068;6.572;2022-09-09T14:14:40;5.03;;;0.47;;
54831;SDS011;40730;53.068;6.572;2022-09-09T14:17:07;4.15;;;0.22;;
54831;SDS011;40730;53.068;6.572;2022-09-09T14:19:33;2.97;;;0.20;;
54831;SDS011;40730;53.068;6.572;2022-09-09T14:21:59;0.90;;;0.10;;
54831;SDS011;40730;53.068;6.572;2022-09-09T14:24:26;0.60;;;0.00;;
54831;SDS011;40730;53.068;6.572;2022-09-09T14:26:52;2.03;;;0.50;;
54831;SDS011;40730;53.068;6.572;2022-09-09T14:29:18;0.40;;;0.10;;
54831;SDS011;40730;53.068;6.572;2022-09-09T14:31:44;0.75;;;0.10;;
54831;SDS011;40730;53.068;6.572;2022-09-09T14:34:10;2.00;;;0.10;;
54831;SDS011;40730;53.068;6.572;2022-09-09T14:36:36;0.10;;;0.00;;
54831;SDS011;40730;53.068;6.572;2022-09-09T14:39:02;0.95;;;0.10;;
54831;SDS011;40730;53.068;6.572;2022-09-09T14:41:29;2.17;;;0.20;;
54831;SDS011;40730;53.068;6.572;2022-09-09T14:43:55;1.83;;;0.17;;
54831;SDS011;40730;53.068;6.572;2022-09-09T14:46:21;3.63;;;0.20;;
54831;SDS011;40730;53.068;6.572;2022-09-09T14:48:47;2.28;;;0.20;;
54831;SDS011;40730;53.068;6.572;2022-09-09T14:51:19;3.13;;;0.20;;
54831;SDS011;40730;53.068;6.572;2022-09-09T14:53:54;3.95;;;0.28;;
54831;SDS011;40730;53.068;6.572;2022-09-09T14:56:23;0.93;;;0.20;;
54831;SDS011;40730;53.068;6.572;2022-09-09T14:58:52;2.03;;;0.20;;
54831;SDS011;40730;53.068;6.572;2022-09-09T15:01:20;0.82;;;0.10;;
54831;SDS011;40730;53.068;6.572;2022-09-09T15:04:19;1.83;;;0.60;;
54831;SDS011;40730;53.068;6.572;2022-09-09T15:06:39;1.17;;;0.10;;
54831;SDS011;40730;53.068;6.572;2022-09-09T15:09:07;1.13;;;0.28;;
54831;SDS011;40730;53.068;6.572;2022-09-09T15:11:34;3.83;;;0.10;;
54831;SDS011;40730;53.068;6.572;2022-09-09T15:14:06;2.45;;;0.10;;
54831;SDS011;40730;53.068;6.572;2022-09-09T15:16:33;1.95;;;0.10;;
54831;SDS011;40730;53.068;6.572;2022-09-09T15:19:00;1.13;;;0.10;;
54831;SDS011;40730;53.068;6.572;2022-09-09T15:21:30;0.90;;;0.10;;
54831;SDS011;40730;53.068;6.572;2022-09-09T15:23:58;1.35;;;0.20;;
54831;SDS011;40730;53.068;6.572;2022-09-09T15:26:24;2.10;;;0.13;;
54831;SDS011;40730;53.068;6.572;2022-09-09T15:28:50;2.30;;;0.20;;
54831;SDS011;40730;53.068;6.572;2022-09-09T15:31:17;0.55;;;0.08;;
54831;SDS011;40730;53.068;6.572;2022-09-09T15:33:48;2.42;;;0.10;;
54831;SDS011;40730;53.068;6.572;2022-09-09T15:36:14;1.45;;;0.20;;
54831;SDS011;40730;53.068;6.572;2022-09-09T15:38:41;1.73;;;0.10;;
54831;SDS011;40730;53.068;6.572;2022-09-09T15:41:09;2.08;;;0.20;;
54831;SDS011;40730;53.068;6.572;2022-09-09T15:43:35;1.50;;;0.30;;
54831;SDS011;40730;53.068;6.572;2022-09-09T15:48:45;1.83;;;0.40;;
54831;SDS011;40730;53.068;6.572;2022-09-09T15:51:11;1.50;;;0.20;;
54831;SDS011;40730;53.068;6.572;2022-09-09T15:53:39;2.33;;;0.50;;
54831;SDS011;40730;53.068;6.572;2022-09-09T15:56:07;1.80;;;0.20;;
54831;SDS011;40730;53.068;6.572;2022-09-09T15:58:34;2.08;;;0.22;;
54831;SDS011;40730;53.068;6.572;2022-09-09T16:01:10;2.83;;;0.20;;
54831;SDS011;40730;53.068;6.572;2022-09-09T16:03:38;2.88;;;0.20;;
54831;SDS011;40730;53.068;6.572;2022-09-09T16:06:13;2.77;;;0.60;;
54831;SDS011;40730;53.068;6.572;2022-09-09T16:08:40;1.77;;;0.20;;
54831;SDS011;40730;53.068;6.572;2022-09-09T16:11:15;2.78;;;0.20;;
54831;SDS011;40730;53.068;6.572;2022-09-09T16:13:43;1.30;;;0.40;;
54831;SDS011;40730;53.068;6.572;2022-09-09T16:16:10;1.00;;;0.20;;
54831;SDS011;40730;53.068;6.572;2022-09-09T16:18:44;3.20;;;0.30;;
54831;SDS011;40730;53.068;6.572;2022-09-09T16:21:15;1.70;;;0.20;;
54831;SDS011;40730;53.068;6.572;2022-09-09T16:23:42;1.67;;;0.35;;
54831;SDS011;40730;53.068;6.572;2022-09-09T16:26:13;1.52;;;0.30;;
54831;SDS011;40730;53.068;6.572;2022-09-09T16:28:40;2.45;;;0.30;;
54831;SDS011;40730;53.068;6.572;2022-09-09T16:31:07;1.85;;;0.30;;
54831;SDS011;40730;53.068;6.572;2022-09-09T16:33:35;2.58;;;0.45;;
54831;SDS011;40730;53.068;6.572;2022-09-09T16:36:07;1.92;;;0.35;;
54831;SDS011;40730;53.068;6.572;2022-09-09T16:38:35;1.50;;;0.20;;
54831;SDS011;40730;53.068;6.572;2022-09-09T16:41:02;3.17;;;0.32;;
54831;SDS011;40730;53.068;6.572;2022-09-09T16:43:30;1.45;;;0.20;;
54831;SDS011;40730;53.068;6.572;2022-09-09T16:45:55;3.65;;;0.40;;
54831;SDS011;40730;53.068;6.572;2022-09-09T16:48:21;3.20;;;0.30;;
54831;SDS011;40730;53.068;6.572;2022-09-09T16:50:46;3.67;;;0.70;;
54831;SDS011;40730;53.068;6.572;2022-09-09T16:53:13;2.58;;;0.30;;
54831;SDS011;40730;53.068;6.572;2022-09-09T16:55:39;3.33;;;0.43;;
54831;SDS011;40730;53.068;6.572;2022-09-09T16:58:06;4.65;;;0.75;;
54831;SDS011;40730;53.068;6.572;2022-09-09T17:00:35;4.32;;;0.30;;
54831;SDS011;40730;53.068;6.572;2022-09-09T17:03:00;1.55;;;0.30;;
54831;SDS011;40730;53.068;6.572;2022-09-09T17:05:27;4.90;;;0.50;;
54831;SDS011;40730;53.068;6.572;2022-09-09T17:07:53;2.30;;;0.30;;
54831;SDS011;40730;53.068;6.572;2022-09-09T17:10:23;5.40;;;0.75;;